sensor_id;sensor_type;location;lat;lon;timestamp;temperature;humidity
37002;DHT22;22913;51.910;8.374;2023-05-14T00:01:38;14.50;99.90
37002;DHT22;22913;51.910;8.374;2023-05-14T00:04:23;14.50;99.90
37002;DHT22;22913;51.910;8.374;2023-05-14T00:07:08;14.40;99.90
37002;DHT22;22913;51.910;8.374;2023-05-14T00:09:56;14.40;99.90
37002;DHT22;22913;51.910;8.374;2023-05-14T00:12:41;14.30;99.90
37002;DHT22;22913;51.910;8.374;2023-05-14T00:15:26;14.30;99.90
37002;DHT22;22913;51.910;8.374;2023-05-14T00:18:11;14.30;99.90
37002;DHT22;22913;51.910;8.374;2023-05-14T00:20:57;14.30;99.90
37002;DHT22;22913;51.910;8.374;2023-05-14T00:23:42;14.30;99.90
37002;DHT22;22913;51.910;8.374;2023-05-14T00:26:28;14.30;99.90
37002;DHT22;22913;51.910;8.374;2023-05-14T00:29:14;14.30;99.90
37002;DHT22;22913;51.910;8.374;2023-05-14T00:31:59;14.40;99.90
37002;DHT22;22913;51.910;8.374;2023-05-14T00:34:44;14.40;99.90
37002;DHT22;22913;51.910;8.374;2023-05-14T00:37:29;14.40;99.90
37002;DHT22;22913;51.910;8.374;2023-05-14T00:40:14;14.30;99.90
37002;DHT22;22913;51.910;8.374;2023-05-14T00:43:01;14.20;99.90
37002;DHT22;22913;51.910;8.374;2023-05-14T00:45:47;14.10;99.90
37002;DHT22;22913;51.910;8.374;2023-05-14T00:48:33;14.10;99.90
37002;DHT22;22913;51.910;8.374;2023-05-14T00:51:19;14.10;99.90
37002;DHT22;22913;51.910;8.374;2023-05-14T00:54:04;14.10;99.90
37002;DHT22;22913;51.910;8.374;2023-05-14T00:56:50;14.00;99.90
37002;DHT22;22913;51.910;8.374;2023-05-14T00:59:36;13.90;99.90
37002;DHT22;22913;51.910;8.374;2023-05-14T01:02:24;13.80;99.90
37002;DHT22;22913;51.910;8.374;2023-05-14T01:05:09;13.70;99.90
37002;DHT22;22913;51.910;8.374;2023-05-14T01:07:56;13.70;99.90
37002;DHT22;22913;51.910;8.374;2023-05-14T01:10:45;13.60;99.90
37002;DHT22;22913;51.910;8.374;2023-05-14T01:13:33;13.60;99.90
37002;DHT22;22913;51.910;8.374;2023-05-14T01:16:21;13.60;99.90
37002;DHT22;22913;51.910;8.374;2023-05-14T01:19:14;13.50;99.90
37002;DHT22;22913;51.910;8.374;2023-05-14T01:22:04;13.50;99.90
37002;DHT22;22913;51.910;8.374;2023-05-14T01:24:49;13.40;99.90
37002;DHT22;22913;51.910;8.374;2023-05-14T01:27:35;13.40;99.90
37002;DHT22;22913;51.910;8.374;2023-05-14T01:30:22;13.30;99.90
37002;DHT22;22913;51.910;8.374;2023-05-14T01:33:09;13.20;99.90
37002;DHT22;22913;51.910;8.374;2023-05-14T01:35:54;13.20;99.90
37002;DHT22;22913;51.910;8.374;2023-05-14T01:38:42;13.20;99.90
37002;DHT22;22913;51.910;8.374;2023-05-14T01:41:30;13.20;99.90
37002;DHT22;22913;51.910;8.374;2023-05-14T01:44:16;13.10;99.90
37002;DHT22;22913;51.910;8.374;2023-05-14T01:47:01;13.20;99.90
37002;DHT22;22913;51.910;8.374;2023-05-14T01:49:47;13.10;99.90
37002;DHT22;22913;51.910;8.374;2023-05-14T01:52:32;13.00;99.90
37002;DHT22;22913;51.910;8.374;2023-05-14T01:55:19;12.90;99.90
37002;DHT22;22913;51.910;8.374;2023-05-14T01:58:04;12.80;99.90
37002;DHT22;22913;51.910;8.374;2023-05-14T02:00:50;12.70;99.90
37002;DHT22;22913;51.910;8.374;2023-05-14T02:03:35;12.70;99.90
37002;DHT22;22913;51.910;8.374;2023-05-14T02:06:20;12.60;99.90
37002;DHT22;22913;51.910;8.374;2023-05-14T02:09:05;12.50;99.90
37002;DHT22;22913;51.910;8.374;2023-05-14T02:11:52;12.50;99.90
37002;DHT22;22913;51.910;8.374;2023-05-14T02:14:37;12.50;99.90
37002;DHT22;22913;51.910;8.374;2023-05-14T02:17:24;12.40;99.90
37002;DHT22;22913;51.910;8.374;2023-05-14T02:20:10;12.40;99.90
37002;DHT22;22913;51.910;8.374;2023-05-14T02:22:56;12.30;99.90
37002;DHT22;22913;51.910;8.374;2023-05-14T02:25:43;12.20;99.90
37002;DHT22;22913;51.910;8.374;2023-05-14T02:28:29;12.10;99.90
37002;DHT22;22913;51.910;8.374;2023-05-14T02:31:15;12.10;99.90
37002;DHT22;22913;51.910;8.374;2023-05-14T02:34:03;12.10;99.90
37002;DHT22;22913;51.910;8.374;2023-05-14T02:36:49;12.10;99.90
37002;DHT22;22913;51.910;8.374;2023-05-14T02:39:35;12.00;99.90
37002;DHT22;22913;51.910;8.374;2023-05-14T02:42:20;12.00;99.90
37002;DHT22;22913;51.910;8.374;2023-05-14T02:45:07;12.00;99.90
37002;DHT22;22913;51.910;8.374;2023-05-14T02:47:52;12.10;99.90
37002;DHT22;22913;51.910;8.374;2023-05-14T02:50:37;12.10;99.90
37002;DHT22;22913;51.910;8.374;2023-05-14T02:53:23;12.10;99.90
37002;DHT22;22913;51.910;8.374;2023-05-14T02:56:08;12.10;99.90
37002;DHT22;22913;51.910;8.374;2023-05-14T02:58:53;12.10;99.90
37002;DHT22;22913;51.910;8.374;2023-05-14T03:01:39;12.10;99.90
37002;DHT22;22913;51.910;8.374;2023-05-14T03:04:25;12.10;99.90
37002;DHT22;22913;51.910;8.374;2023-05-14T03:07:11;12.00;99.90
37002;DHT22;22913;51.910;8.374;2023-05-14T03:09:56;12.00;99.90
37002;DHT22;22913;51.910;8.374;2023-05-14T03:12:43;12.00;99.90
37002;DHT22;22913;51.910;8.374;2023-05-14T03:15:28;12.00;99.90
37002;DHT22;22913;51.910;8.374;2023-05-14T03:18:15;12.00;99.90
37002;DHT22;22913;51.910;8.374;2023-05-14T03:21:01;11.90;99.90
37002;DHT22;22913;51.910;8.374;2023-05-14T03:23:47;11.90;99.90
37002;DHT22;22913;51.910;8.374;2023-05-14T03:26:33;11.90;99.90
37002;DHT22;22913;51.910;8.374;2023-05-14T03:29:18;11.90;99.90
37002;DHT22;22913;51.910;8.374;2023-05-14T03:32:05;11.90;99.90
37002;DHT22;22913;51.910;8.374;2023-05-14T03:34:52;11.90;99.90
37002;DHT22;22913;51.910;8.374;2023-05-14T03:37:37;11.90;99.90
37002;DHT22;22913;51.910;8.374;2023-05-14T03:40:23;11.90;99.90
37002;DHT22;22913;51.910;8.374;2023-05-14T03:43:08;11.90;99.90
37002;DHT22;22913;51.910;8.374;2023-05-14T03:45:54;11.80;99.90
37002;DHT22;22913;51.910;8.374;2023-05-14T03:48:40;11.70;99.90
37002;DHT22;22913;51.910;8.374;2023-05-14T03:51:27;11.70;99.90
37002;DHT22;22913;51.910;8.374;2023-05-14T03:54:12;11.70;99.90
37002;DHT22;22913;51.910;8.374;2023-05-14T03:56:58;11.70;99.90
37002;DHT22;22913;51.910;8.374;2023-05-14T03:59:43;11.70;99.90
37002;DHT22;22913;51.910;8.374;2023-05-14T04:02:29;11.70;99.90
37002;DHT22;22913;51.910;8.374;2023-05-14T04:05:14;11.60;99.90
37002;DHT22;22913;51.910;8.374;2023-05-14T04:08:02;11.60;99.90
37002;DHT22;22913;51.910;8.374;2023-05-14T04:10:47;11.60;99.90
37002;DHT22;22913;51.910;8.374;2023-05-14T04:13:33;11.60;99.90
37002;DHT22;22913;51.910;8.374;2023-05-14T04:16:18;11.60;99.90
37002;DHT22;22913;51.910;8.374;2023-05-14T04:19:04;11.60;99.90
37002;DHT22;22913;51.910;8.374;2023-05-14T04:21:50;11.60;99.90
37002;DHT22;22913;51.910;8.374;2023-05-14T04:24:37;11.60;99.90
37002;DHT22;22913;51.910;8.374;2023-05-14T04:27:22;11.60;99.90
37002;DHT22;22913;51.910;8.374;2023-05-14T04:30:09;11.70;99.90
37002;DHT22;22913;51.910;8.374;2023-05-14T04:32:54;11.70;99.90
37002;DHT22;22913;51.910;8.374;2023-05-14T04:35:40;11.80;99.90
37002;DHT22;22913;51.910;8.374;2023-05-14T04:38:25;11.80;99.90
37002;DHT22;22913;51.910;8.374;2023-05-14T04:41:13;11.90;99.90
37002;DHT22;22913;51.910;8.374;2023-05-14T04:43:59;11.90;99.90
37002;DHT22;22913;51.910;8.374;2023-05-14T04:46:45;12.00;99.90
37002;DHT22;22913;51.910;8.374;2023-05-14T04:49:31;12.00;99.90
37002;DHT22;22913;51.910;8.374;2023-05-14T04:52:18;12.10;99.90
37002;DHT22;22913;51.910;8.374;2023-05-14T04:55:04;12.20;99.90
37002;DHT22;22913;51.910;8.374;2023-05-14T04:57:51;12.20;99.90
37002;DHT22;22913;51.910;8.374;2023-05-14T05:00:37;12.30;99.90
37002;DHT22;22913;51.910;8.374;2023-05-14T05:03:23;12.30;99.90
37002;DHT22;22913;51.910;8.374;2023-05-14T05:06:08;12.30;99.90
37002;DHT22;22913;51.910;8.374;2023-05-14T05:08:54;12.40;99.90
37002;DHT22;22913;51.910;8.374;2023-05-14T05:11:40;12.50;99.90
37002;DHT22;22913;51.910;8.374;2023-05-14T05:14:27;12.60;99.90
37002;DHT22;22913;51.910;8.374;2023-05-14T05:17:13;12.60;99.90
37002;DHT22;22913;51.910;8.374;2023-05-14T05:19:58;12.70;99.90
37002;DHT22;22913;51.910;8.374;2023-05-14T05:22:43;12.70;99.90
37002;DHT22;22913;51.910;8.374;2023-05-14T05:25:29;12.80;99.90
37002;DHT22;22913;51.910;8.374;2023-05-14T05:28:15;13.00;99.90
37002;DHT22;22913;51.910;8.374;2023-05-14T05:31:02;13.00;99.90
37002;DHT22;22913;51.910;8.374;2023-05-14T05:33:47;13.20;99.90
37002;DHT22;22913;51.910;8.374;2023-05-14T05:36:33;13.30;99.90
37002;DHT22;22913;51.910;8.374;2023-05-14T05:39:18;13.40;99.90
37002;DHT22;22913;51.910;8.374;2023-05-14T05:42:05;13.50;99.90
37002;DHT22;22913;51.910;8.374;2023-05-14T05:44:51;13.60;99.90
37002;DHT22;22913;51.910;8.374;2023-05-14T05:47:38;13.80;99.90
37002;DHT22;22913;51.910;8.374;2023-05-14T05:50:23;13.90;99.90
37002;DHT22;22913;51.910;8.374;2023-05-14T05:53:09;14.00;99.90
37002;DHT22;22913;51.910;8.374;2023-05-14T05:55:55;14.10;99.90
37002;DHT22;22913;51.910;8.374;2023-05-14T05:58:41;14.20;99.90
37002;DHT22;22913;51.910;8.374;2023-05-14T06:01:27;14.40;99.90
37002;DHT22;22913;51.910;8.374;2023-05-14T06:04:14;14.50;99.90
37002;DHT22;22913;51.910;8.374;2023-05-14T06:06:59;14.60;99.90
37002;DHT22;22913;51.910;8.374;2023-05-14T06:09:45;14.70;99.90
37002;DHT22;22913;51.910;8.374;2023-05-14T06:12:31;14.90;99.90
37002;DHT22;22913;51.910;8.374;2023-05-14T06:15:17;15.00;99.90
37002;DHT22;22913;51.910;8.374;2023-05-14T06:18:02;15.10;99.90
37002;DHT22;22913;51.910;8.374;2023-05-14T06:20:50;15.10;99.90
37002;DHT22;22913;51.910;8.374;2023-05-14T06:23:35;15.20;99.90
37002;DHT22;22913;51.910;8.374;2023-05-14T06:26:21;15.20;99.90
37002;DHT22;22913;51.910;8.374;2023-05-14T06:29:07;15.30;99.90
37002;DHT22;22913;51.910;8.374;2023-05-14T06:31:52;15.40;99.90
37002;DHT22;22913;51.910;8.374;2023-05-14T06:34:38;15.40;99.90
37002;DHT22;22913;51.910;8.374;2023-05-14T06:37:25;15.40;99.90
37002;DHT22;22913;51.910;8.374;2023-05-14T06:40:11;15.50;99.90
37002;DHT22;22913;51.910;8.374;2023-05-14T06:42:58;15.60;99.90
37002;DHT22;22913;51.910;8.374;2023-05-14T06:45:47;15.60;99.90
37002;DHT22;22913;51.910;8.374;2023-05-14T06:48:33;15.70;99.90
37002;DHT22;22913;51.910;8.374;2023-05-14T06:51:19;15.80;99.90
37002;DHT22;22913;51.910;8.374;2023-05-14T06:54:06;15.80;99.90
37002;DHT22;22913;51.910;8.374;2023-05-14T06:56:52;15.90;99.90
37002;DHT22;22913;51.910;8.374;2023-05-14T06:59:38;16.00;99.90
37002;DHT22;22913;51.910;8.374;2023-05-14T07:02:23;16.00;99.90
37002;DHT22;22913;51.910;8.374;2023-05-14T07:05:09;16.10;99.90
37002;DHT22;22913;51.910;8.374;2023-05-14T07:07:55;16.20;99.90
37002;DHT22;22913;51.910;8.374;2023-05-14T07:10:42;16.20;99.90
37002;DHT22;22913;51.910;8.374;2023-05-14T07:13:27;16.30;99.90
37002;DHT22;22913;51.910;8.374;2023-05-14T07:16:13;16.40;99.90
37002;DHT22;22913;51.910;8.374;2023-05-14T07:18:58;16.40;99.90
37002;DHT22;22913;51.910;8.374;2023-05-14T07:21:44;16.50;99.90
37002;DHT22;22913;51.910;8.374;2023-05-14T07:24:30;16.50;99.90
37002;DHT22;22913;51.910;8.374;2023-05-14T07:27:17;16.60;99.90
37002;DHT22;22913;51.910;8.374;2023-05-14T07:30:02;16.60;99.90
37002;DHT22;22913;51.910;8.374;2023-05-14T07:32:49;16.70;99.90
37002;DHT22;22913;51.910;8.374;2023-05-14T07:35:35;16.70;99.90
37002;DHT22;22913;51.910;8.374;2023-05-14T07:38:20;16.70;99.90
37002;DHT22;22913;51.910;8.374;2023-05-14T07:41:06;16.70;99.90
37002;DHT22;22913;51.910;8.374;2023-05-14T07:43:53;16.80;99.90
37002;DHT22;22913;51.910;8.374;2023-05-14T07:46:39;16.80;99.90
37002;DHT22;22913;51.910;8.374;2023-05-14T07:49:25;16.90;99.90
37002;DHT22;22913;51.910;8.374;2023-05-14T07:52:10;17.00;99.90
37002;DHT22;22913;51.910;8.374;2023-05-14T07:54:56;17.00;99.90
37002;DHT22;22913;51.910;8.374;2023-05-14T07:57:43;17.10;99.90
37002;DHT22;22913;51.910;8.374;2023-05-14T08:00:30;17.20;99.90
37002;DHT22;22913;51.910;8.374;2023-05-14T08:03:16;17.30;99.90
37002;DHT22;22913;51.910;8.374;2023-05-14T08:06:02;17.40;99.90
37002;DHT22;22913;51.910;8.374;2023-05-14T08:08:47;17.50;99.90
37002;DHT22;22913;51.910;8.374;2023-05-14T08:11:32;17.60;99.90
37002;DHT22;22913;51.910;8.374;2023-05-14T08:14:18;17.70;99.90
37002;DHT22;22913;51.910;8.374;2023-05-14T08:17:05;17.80;99.90
37002;DHT22;22913;51.910;8.374;2023-05-14T08:19:51;17.70;99.90
37002;DHT22;22913;51.910;8.374;2023-05-14T08:22:37;17.80;99.90
37002;DHT22;22913;51.910;8.374;2023-05-14T08:25:23;17.90;99.90
37002;DHT22;22913;51.910;8.374;2023-05-14T08:28:09;18.00;99.90
37002;DHT22;22913;51.910;8.374;2023-05-14T08:30:54;17.90;99.90
37002;DHT22;22913;51.910;8.374;2023-05-14T08:33:41;18.00;99.90
37002;DHT22;22913;51.910;8.374;2023-05-14T08:36:27;18.20;99.90
37002;DHT22;22913;51.910;8.374;2023-05-14T08:39:12;18.40;99.90
37002;DHT22;22913;51.910;8.374;2023-05-14T08:41:59;18.40;99.90
37002;DHT22;22913;51.910;8.374;2023-05-14T08:44:47;18.40;99.90
37002;DHT22;22913;51.910;8.374;2023-05-14T08:47:33;18.50;99.90
37002;DHT22;22913;51.910;8.374;2023-05-14T08:50:20;18.70;99.90
37002;DHT22;22913;51.910;8.374;2023-05-14T08:53:06;18.70;99.90
37002;DHT22;22913;51.910;8.374;2023-05-14T08:55:52;18.80;99.90
37002;DHT22;22913;51.910;8.374;2023-05-14T08:58:38;19.00;99.90
37002;DHT22;22913;51.910;8.374;2023-05-14T09:01:24;19.10;99.90
37002;DHT22;22913;51.910;8.374;2023-05-14T09:04:10;19.10;99.90
37002;DHT22;22913;51.910;8.374;2023-05-14T09:07:00;19.20;99.90
37002;DHT22;22913;51.910;8.374;2023-05-14T09:09:47;19.20;99.90
37002;DHT22;22913;51.910;8.374;2023-05-14T09:12:32;19.40;99.90
37002;DHT22;22913;51.910;8.374;2023-05-14T09:15:18;19.60;99.90
37002;DHT22;22913;51.910;8.374;2023-05-14T09:18:04;19.80;99.90
37002;DHT22;22913;51.910;8.374;2023-05-14T09:20:50;19.90;99.90
37002;DHT22;22913;51.910;8.374;2023-05-14T09:23:41;20.10;99.90
37002;DHT22;22913;51.910;8.374;2023-05-14T09:26:31;20.20;99.90
37002;DHT22;22913;51.910;8.374;2023-05-14T09:29:16;20.30;99.90
37002;DHT22;22913;51.910;8.374;2023-05-14T09:32:02;20.20;99.90
37002;DHT22;22913;51.910;8.374;2023-05-14T09:34:48;20.20;99.90
37002;DHT22;22913;51.910;8.374;2023-05-14T09:37:35;20.20;99.90
37002;DHT22;22913;51.910;8.374;2023-05-14T09:40:22;20.30;99.90
37002;DHT22;22913;51.910;8.374;2023-05-14T09:43:08;20.40;99.90
37002;DHT22;22913;51.910;8.374;2023-05-14T09:45:54;20.60;99.90
37002;DHT22;22913;51.910;8.374;2023-05-14T09:48:39;20.80;99.90
37002;DHT22;22913;51.910;8.374;2023-05-14T09:51:25;21.00;99.90
37002;DHT22;22913;51.910;8.374;2023-05-14T09:54:16;21.10;99.90
37002;DHT22;22913;51.910;8.374;2023-05-14T09:57:02;21.10;99.90
37002;DHT22;22913;51.910;8.374;2023-05-14T09:59:48;21.20;99.90
37002;DHT22;22913;51.910;8.374;2023-05-14T10:02:35;21.30;99.90
37002;DHT22;22913;51.910;8.374;2023-05-14T10:05:22;21.40;99.90
37002;DHT22;22913;51.910;8.374;2023-05-14T10:08:11;21.40;99.90
37002;DHT22;22913;51.910;8.374;2023-05-14T10:10:58;21.40;99.90
37002;DHT22;22913;51.910;8.374;2023-05-14T10:13:54;21.30;99.90
37002;DHT22;22913;51.910;8.374;2023-05-14T10:16:45;21.40;99.90
37002;DHT22;22913;51.910;8.374;2023-05-14T10:19:33;21.30;99.90
37002;DHT22;22913;51.910;8.374;2023-05-14T10:22:22;21.20;99.90
37002;DHT22;22913;51.910;8.374;2023-05-14T10:25:08;21.20;99.90
37002;DHT22;22913;51.910;8.374;2023-05-14T10:27:55;21.40;99.90
37002;DHT22;22913;51.910;8.374;2023-05-14T10:30:45;21.70;99.90
37002;DHT22;22913;51.910;8.374;2023-05-14T10:33:45;21.80;99.90
37002;DHT22;22913;51.910;8.374;2023-05-14T10:36:32;21.80;99.90
37002;DHT22;22913;51.910;8.374;2023-05-14T10:39:17;21.80;99.90
37002;DHT22;22913;51.910;8.374;2023-05-14T10:42:04;21.50;99.90
37002;DHT22;22913;51.910;8.374;2023-05-14T10:44:52;21.40;99.90
37002;DHT22;22913;51.910;8.374;2023-05-14T10:47:42;21.90;99.90
37002;DHT22;22913;51.910;8.374;2023-05-14T10:50:29;22.00;99.90
37002;DHT22;22913;51.910;8.374;2023-05-14T10:53:14;21.90;99.90
37002;DHT22;22913;51.910;8.374;2023-05-14T10:56:05;22.00;99.90
37002;DHT22;22913;51.910;8.374;2023-05-14T10:58:51;22.10;99.90
37002;DHT22;22913;51.910;8.374;2023-05-14T11:01:44;22.40;99.90
37002;DHT22;22913;51.910;8.374;2023-05-14T11:04:30;22.70;99.90
37002;DHT22;22913;51.910;8.374;2023-05-14T11:07:16;22.90;99.90
37002;DHT22;22913;51.910;8.374;2023-05-14T11:10:04;23.10;99.90
37002;DHT22;22913;51.910;8.374;2023-05-14T11:12:51;23.00;99.90
37002;DHT22;22913;51.910;8.374;2023-05-14T11:15:37;23.10;99.90
37002;DHT22;22913;51.910;8.374;2023-05-14T11:18:31;23.40;99.90
37002;DHT22;22913;51.910;8.374;2023-05-14T11:21:18;23.60;99.90
37002;DHT22;22913;51.910;8.374;2023-05-14T11:24:05;23.80;99.90
37002;DHT22;22913;51.910;8.374;2023-05-14T11:26:51;23.80;99.90
37002;DHT22;22913;51.910;8.374;2023-05-14T11:29:42;23.70;99.90
37002;DHT22;22913;51.910;8.374;2023-05-14T11:32:28;23.90;99.90
37002;DHT22;22913;51.910;8.374;2023-05-14T11:35:16;24.00;99.90
37002;DHT22;22913;51.910;8.374;2023-05-14T11:38:03;23.90;99.90
37002;DHT22;22913;51.910;8.374;2023-05-14T11:40:53;23.90;99.90
37002;DHT22;22913;51.910;8.374;2023-05-14T11:43:39;23.80;99.90
37002;DHT22;22913;51.910;8.374;2023-05-14T11:46:25;23.70;99.90
37002;DHT22;22913;51.910;8.374;2023-05-14T11:49:13;23.50;99.90
37002;DHT22;22913;51.910;8.374;2023-05-14T11:51:59;23.20;99.90
37002;DHT22;22913;51.910;8.374;2023-05-14T11:54:46;23.00;99.90
37002;DHT22;22913;51.910;8.374;2023-05-14T11:57:32;22.80;99.90
37002;DHT22;22913;51.910;8.374;2023-05-14T12:00:19;22.60;99.90
37002;DHT22;22913;51.910;8.374;2023-05-14T12:03:06;22.50;99.90
37002;DHT22;22913;51.910;8.374;2023-05-14T12:05:57;22.40;99.90
37002;DHT22;22913;51.910;8.374;2023-05-14T12:08:43;22.30;99.90
37002;DHT22;22913;51.910;8.374;2023-05-14T12:11:31;22.30;99.90
37002;DHT22;22913;51.910;8.374;2023-05-14T12:14:18;22.30;99.90
37002;DHT22;22913;51.910;8.374;2023-05-14T12:17:10;22.40;99.90
37002;DHT22;22913;51.910;8.374;2023-05-14T12:19:56;22.40;99.90
37002;DHT22;22913;51.910;8.374;2023-05-14T12:22:41;22.30;99.90
37002;DHT22;22913;51.910;8.374;2023-05-14T12:25:28;22.40;99.90
37002;DHT22;22913;51.910;8.374;2023-05-14T12:28:15;22.00;99.90
37002;DHT22;22913;51.910;8.374;2023-05-14T12:31:01;22.00;99.90
37002;DHT22;22913;51.910;8.374;2023-05-14T12:33:47;21.80;99.90
37002;DHT22;22913;51.910;8.374;2023-05-14T12:36:32;21.40;99.90
37002;DHT22;22913;51.910;8.374;2023-05-14T12:39:18;21.40;99.90
37002;DHT22;22913;51.910;8.374;2023-05-14T12:42:04;21.40;99.90
37002;DHT22;22913;51.910;8.374;2023-05-14T12:44:51;21.30;99.90
37002;DHT22;22913;51.910;8.374;2023-05-14T12:47:37;21.30;99.90
37002;DHT22;22913;51.910;8.374;2023-05-14T12:50:22;21.30;99.90
37002;DHT22;22913;51.910;8.374;2023-05-14T12:53:08;21.40;99.90
37002;DHT22;22913;51.910;8.374;2023-05-14T12:55:54;21.60;99.90
37002;DHT22;22913;51.910;8.374;2023-05-14T12:58:39;21.70;99.90
37002;DHT22;22913;51.910;8.374;2023-05-14T13:01:26;21.70;99.90
37002;DHT22;22913;51.910;8.374;2023-05-14T13:04:11;21.80;99.90
37002;DHT22;22913;51.910;8.374;2023-05-14T13:06:57;22.00;99.90
37002;DHT22;22913;51.910;8.374;2023-05-14T13:09:43;22.10;99.90
37002;DHT22;22913;51.910;8.374;2023-05-14T13:12:29;22.20;99.90
37002;DHT22;22913;51.910;8.374;2023-05-14T13:15:14;22.40;99.90
37002;DHT22;22913;51.910;8.374;2023-05-14T13:18:02;22.70;99.90
37002;DHT22;22913;51.910;8.374;2023-05-14T13:20:47;23.00;99.90
37002;DHT22;22913;51.910;8.374;2023-05-14T13:23:34;23.30;99.90
37002;DHT22;22913;51.910;8.374;2023-05-14T13:26:19;23.70;99.90
37002;DHT22;22913;51.910;8.374;2023-05-14T13:29:05;24.00;99.90
37002;DHT22;22913;51.910;8.374;2023-05-14T13:31:50;24.30;99.90
37002;DHT22;22913;51.910;8.374;2023-05-14T13:34:37;24.40;99.90
37002;DHT22;22913;51.910;8.374;2023-05-14T13:37:23;24.80;99.90
37002;DHT22;22913;51.910;8.374;2023-05-14T13:40:09;25.20;99.90
37002;DHT22;22913;51.910;8.374;2023-05-14T13:42:55;25.80;99.90
37002;DHT22;22913;51.910;8.374;2023-05-14T13:45:40;26.40;99.90
37002;DHT22;22913;51.910;8.374;2023-05-14T13:48:26;27.00;99.90
37002;DHT22;22913;51.910;8.374;2023-05-14T13:51:13;27.80;99.90
37002;DHT22;22913;51.910;8.374;2023-05-14T13:53:59;28.60;99.90
37002;DHT22;22913;51.910;8.374;2023-05-14T13:56:44;29.40;99.90
37002;DHT22;22913;51.910;8.374;2023-05-14T13:59:30;30.00;99.90
37002;DHT22;22913;51.910;8.374;2023-05-14T14:02:16;30.60;99.90
37002;DHT22;22913;51.910;8.374;2023-05-14T14:05:01;30.60;93.90
37002;DHT22;22913;51.910;8.374;2023-05-14T14:07:49;30.60;91.80
37002;DHT22;22913;51.910;8.374;2023-05-14T14:10:35;30.30;92.70
37002;DHT22;22913;51.910;8.374;2023-05-14T14:13:22;30.00;93.60
37002;DHT22;22913;51.910;8.374;2023-05-14T14:16:08;29.50;93.90
37002;DHT22;22913;51.910;8.374;2023-05-14T14:18:54;29.10;93.30
37002;DHT22;22913;51.910;8.374;2023-05-14T14:21:40;28.90;93.50
37002;DHT22;22913;51.910;8.374;2023-05-14T14:24:27;28.60;94.30
37002;DHT22;22913;51.910;8.374;2023-05-14T14:27:13;28.40;93.70
37002;DHT22;22913;51.910;8.374;2023-05-14T14:29:59;28.10;94.00
37002;DHT22;22913;51.910;8.374;2023-05-14T14:32:44;28.00;94.10
37002;DHT22;22913;51.910;8.374;2023-05-14T14:35:30;27.80;94.00
37002;DHT22;22913;51.910;8.374;2023-05-14T14:38:16;27.50;94.30
37002;DHT22;22913;51.910;8.374;2023-05-14T14:41:03;27.20;94.40
37002;DHT22;22913;51.910;8.374;2023-05-14T14:43:51;27.20;94.80
37002;DHT22;22913;51.910;8.374;2023-05-14T14:46:36;27.40;95.30
37002;DHT22;22913;51.910;8.374;2023-05-14T14:49:22;27.70;95.90
37002;DHT22;22913;51.910;8.374;2023-05-14T14:52:08;28.00;95.30
37002;DHT22;22913;51.910;8.374;2023-05-14T14:54:54;28.10;94.60
37002;DHT22;22913;51.910;8.374;2023-05-14T14:57:41;28.20;96.00
37002;DHT22;22913;51.910;8.374;2023-05-14T15:00:27;28.60;95.90
37002;DHT22;22913;51.910;8.374;2023-05-14T15:03:13;29.10;95.70
37002;DHT22;22913;51.910;8.374;2023-05-14T15:05:59;29.00;94.60
37002;DHT22;22913;51.910;8.374;2023-05-14T15:08:44;28.80;95.00
37002;DHT22;22913;51.910;8.374;2023-05-14T15:11:30;28.70;94.90
37002;DHT22;22913;51.910;8.374;2023-05-14T15:14:17;28.20;95.20
37002;DHT22;22913;51.910;8.374;2023-05-14T15:17:03;27.90;94.80
37002;DHT22;22913;51.910;8.374;2023-05-14T15:19:49;27.70;95.40
37002;DHT22;22913;51.910;8.374;2023-05-14T15:22:34;27.30;94.90
37002;DHT22;22913;51.910;8.374;2023-05-14T15:25:21;27.00;93.80
37002;DHT22;22913;51.910;8.374;2023-05-14T15:28:07;26.70;92.80
37002;DHT22;22913;51.910;8.374;2023-05-14T15:30:54;26.40;94.10
37002;DHT22;22913;51.910;8.374;2023-05-14T15:33:39;25.80;96.30
37002;DHT22;22913;51.910;8.374;2023-05-14T15:36:26;25.30;97.70
37002;DHT22;22913;51.910;8.374;2023-05-14T15:39:11;25.00;98.90
37002;DHT22;22913;51.910;8.374;2023-05-14T15:41:57;24.60;99.40
37002;DHT22;22913;51.910;8.374;2023-05-14T15:44:43;24.20;99.90
37002;DHT22;22913;51.910;8.374;2023-05-14T15:47:30;24.00;99.90
37002;DHT22;22913;51.910;8.374;2023-05-14T15:50:15;23.70;99.90
37002;DHT22;22913;51.910;8.374;2023-05-14T15:53:01;23.60;99.90
37002;DHT22;22913;51.910;8.374;2023-05-14T15:55:47;23.20;99.90
37002;DHT22;22913;51.910;8.374;2023-05-14T15:58:32;23.00;99.90
37002;DHT22;22913;51.910;8.374;2023-05-14T16:01:18;22.70;99.90
37002;DHT22;22913;51.910;8.374;2023-05-14T16:04:05;22.50;99.90
37002;DHT22;22913;51.910;8.374;2023-05-14T16:06:50;22.30;99.90
37002;DHT22;22913;51.910;8.374;2023-05-14T16:09:37;22.10;99.90
37002;DHT22;22913;51.910;8.374;2023-05-14T16:12:23;22.10;99.90
37002;DHT22;22913;51.910;8.374;2023-05-14T16:15:09;22.20;99.90
37002;DHT22;22913;51.910;8.374;2023-05-14T16:17:55;22.10;99.90
37002;DHT22;22913;51.910;8.374;2023-05-14T16:20:42;22.20;99.90
37002;DHT22;22913;51.910;8.374;2023-05-14T16:23:28;22.20;99.90
37002;DHT22;22913;51.910;8.374;2023-05-14T16:26:13;22.00;99.90
37002;DHT22;22913;51.910;8.374;2023-05-14T16:28:59;21.90;99.90
37002;DHT22;22913;51.910;8.374;2023-05-14T16:31:45;21.90;99.90
37002;DHT22;22913;51.910;8.374;2023-05-14T16:34:30;22.00;99.90
37002;DHT22;22913;51.910;8.374;2023-05-14T16:37:18;21.90;99.90
37002;DHT22;22913;51.910;8.374;2023-05-14T16:40:05;21.80;99.90
37002;DHT22;22913;51.910;8.374;2023-05-14T16:42:52;21.70;99.90
37002;DHT22;22913;51.910;8.374;2023-05-14T16:45:37;21.70;99.90
37002;DHT22;22913;51.910;8.374;2023-05-14T16:48:23;21.70;99.90
37002;DHT22;22913;51.910;8.374;2023-05-14T16:51:10;21.70;99.90
37002;DHT22;22913;51.910;8.374;2023-05-14T16:53:57;21.70;99.90
37002;DHT22;22913;51.910;8.374;2023-05-14T16:56:42;21.70;99.90
37002;DHT22;22913;51.910;8.374;2023-05-14T16:59:31;21.70;99.90
37002;DHT22;22913;51.910;8.374;2023-05-14T17:02:17;21.70;99.90
37002;DHT22;22913;51.910;8.374;2023-05-14T17:05:03;21.80;99.90
37002;DHT22;22913;51.910;8.374;2023-05-14T17:07:49;21.70;99.90
37002;DHT22;22913;51.910;8.374;2023-05-14T17:10:36;21.70;99.90
37002;DHT22;22913;51.910;8.374;2023-05-14T17:13:21;21.70;99.90
37002;DHT22;22913;51.910;8.374;2023-05-14T17:16:07;21.70;99.90
37002;DHT22;22913;51.910;8.374;2023-05-14T17:18:53;21.60;99.90
37002;DHT22;22913;51.910;8.374;2023-05-14T17:21:38;21.50;99.90
37002;DHT22;22913;51.910;8.374;2023-05-14T17:24:24;21.50;99.90
37002;DHT22;22913;51.910;8.374;2023-05-14T17:27:12;21.60;99.90
37002;DHT22;22913;51.910;8.374;2023-05-14T17:29:57;21.60;99.90